• Join FlightAware (Why Join?)
  • Login
  • US Flag 
06:15PM EST


 

Airport Tracker/Info


-or-


 

Live Flight TrackerFlight Track Log ✈ CPZ5718 ✈ 03-Jul-2014 ✈ KSFO - KSLC

Flight Track Log - Related Links

Times and Time Zones

All times are in EDT time to prevent confusion due to time zone crossing. See the CPZ5718 flight status page for this flight to view local times or setup timezone preferences in your user account.

Time Position Orientation Groundspeed Altitude Reporting Facility
EDT Latitude Longitude Course Direction KTS MPH feet Rate Location/Type
08:01PM 37.6333 -122.4000 38° Northeast 157 181 1,200  Level Northern Cal TRACON
08:02PM 37.6600 -122.3867 22° Northeast 236 272 1,800 1,596 Climbing Oakland Center
08:03PM 37.6978 -122.3211 54° Northeast 246 283 3,700 2,283 Climbing Oakland Center
08:05PM 38.0527 -121.7626 50° Northeast  Level FlightAware Approximate
08:05PM 37.8008 -122.1742 48° Northeast 284 327 8,800  Level Oakland Center
08:06PM 38.1231 -121.6571 50° Northeast  Level FlightAware Approximate
08:07PM 38.1926 -121.5574 38° Northeast  Level FlightAware Approximate
08:07PM 37.9208 -121.9989 49° Northeast 344 396 12,100  Level Oakland Center
08:08PM 38.0008 -121.8817 49° Northeast 363 418 14,500 1,951 Climbing Oakland Center
08:09PM 38.0675 -121.7836 49° Northeast 382 440 16,100 1,672 Climbing Oakland Center
08:10PM 38.1397 -121.6800 48° Northeast 389 448 17,900 1,761 Climbing Oakland Center
08:12PM 38.2853 -121.4658 49° Northeast 400 460 21,500 1,481 Climbing Oakland Center
08:14PM 38.4288 -121.2334 51° Northeast  Level FlightAware Approximate
08:15PM 38.5147 -121.0994 51° Northeast 434 499 25,500  Level Oakland Center
08:16PM 38.5894 -120.9794 51° Northeast 437 503 26,700 1,122 Climbing Oakland Center
08:17PM 38.6653 -120.8556 52° Northeast 440 506 27,800 927 Climbing Oakland Center
08:18PM 38.7417 -120.7289 52° Northeast 448 516 28,600 927 Climbing Oakland Center
08:19PM 38.8356 -120.5736 52° Northeast 456 525 29,700 1,076 Climbing Oakland Center
08:21PM 38.9892 -120.3189 52° Northeast 451 519 31,900 972 Climbing Oakland Center
08:23PM 39.1481 -120.0553 52° Northeast 448 516 33,700 811 Climbing Oakland Center
08:24PM 39.2247 -119.9283 52° Northeast 448 516 34,400 634 Climbing Oakland Center
08:25PM 39.3008 -119.8006 52° Northeast 451 519 35,000 293 Climbing Oakland Center
08:26PM 39.3775 -119.6706 53° Northeast 454 522 35,000  Level Oakland Center
08:27PM 39.4567 -119.5372 52° Northeast 463 533 35,000  Level Oakland Center
08:29PM 39.6169 -119.2625 53° Northeast 473 544 35,000  Level Oakland Center
08:31PM 39.7800 -118.9811 55° Northeast 479 551 35,000  Level Oakland Center
08:32PM 39.8747 -118.8128 54° Northeast 480 552 35,000  Level Oakland Center
08:33PM 39.9406 -118.6600 61° Northeast 480 552 35,000  Level Oakland Center
08:34PM 40.0036 -118.5056 62° Northeast 481 554 35,000  Level Oakland Center
08:35PM 40.0656 -118.3500 62° Northeast 481 554 35,000  Level Oakland Center
08:36PM 40.1294 -118.1928 62° Northeast 480 552 35,000  Level Salt Lake Center
08:37PM 40.1881 -118.0442 63° Northeast 480 552 35,000  Level Salt Lake Center
08:38PM 40.2303 -117.8861 71° East 481 554 35,000  Level Salt Lake Center
08:39PM 40.2528 -117.6942 81° East 479 551 35,000  Level Salt Lake Center
08:41PM 40.2725 -117.5297 81° East 478 550 35,000  Level Salt Lake Center
08:42PM 40.2956 -117.3372 81° East 479 551 35,000  Level Oakland Center
08:43PM 40.3147 -117.1717 81° East 479 551 35,000  Level Oakland Center
08:44PM 40.3353 -116.9794 82° East 479 551 35,000  Level Oakland Center
08:45PM 40.3547 -116.8053 82° East 480 552 35,000  Level Salt Lake Center
08:46PM 40.3744 -116.6267 82° East 484 557 35,000  Level Salt Lake Center
08:47PM 40.3928 -116.4625 82° East 483 556 35,000  Level Salt Lake Center
08:48PM 40.4122 -116.2714 82° East 476 548 35,000  Level Salt Lake Center
08:49PM 40.4292 -116.1064 82° East 477 549 35,000  Level Salt Lake Center
08:50PM 40.4508 -115.9133 82° East 477 549 35,000  Level Salt Lake Center
08:51PM 40.4683 -115.7464 82° East 478 550 35,000  Level Salt Lake Center
08:52PM 40.4853 -115.5514 83° East 479 551 35,000  Level Salt Lake Center
08:53PM 40.5017 -115.3842 83° East 480 552 35,000  Level Salt Lake Center
08:54PM 40.4986 -115.1886 91° East 480 552 35,000  Level Salt Lake Center
08:55PM 40.4886 -115.0214 94° East 481 554 35,000  Level Salt Lake Center
08:57PM 40.4772 -114.6669 92° East 478 550 35,000  Level Salt Lake Center
08:58PM 40.5022 -114.4942 79° East 481 554 35,000  Level Salt Lake Center
08:59PM 40.5261 -114.3242 79° East 478 550 35,000 -585 Level Salt Lake Center
09:00PM 40.5536 -114.1242 80° East 468 539 33,800 -1,065 Descending Salt Lake Center
09:01PM 40.5769 -113.9544 80° East 469 540 32,800 -1,073 Descending Salt Lake Center
09:02PM 40.5992 -113.7847 80° East 471 542 31,600 -1,902 Descending Salt Lake Center
09:03PM 40.6233 -113.6192 79° East 466 536 28,900 -2,565 Descending Salt Lake Center
09:04PM 40.6433 -113.4586 81° East 449 517 26,300 -2,488 Descending Salt Lake Center
09:05PM 40.6636 -113.3050 80° East 433 498 23,800 -2,596 Descending Salt Lake Center
09:06PM 40.6883 -113.1828 75° East 420 483 21,800 -2,550 Descending Salt Lake Center
09:07PM 40.6997 -113.0944 80° East 395 455 20,400 -2,148 Descending Salt Lake Center
09:07PM 40.7047 -112.9942 86° East 376 433 18,900 -2,032 Descending Salt Lake Center
09:08PM 40.7158 -112.9625 65° Northeast 362 417 18,300 -1,967 Descending Salt Lake Center
09:08PM 40.7211 -112.8589 86° East 376 433 16,900 -1,900 Descending Salt Lake Center
09:09PM 40.7267 -112.8261 77° East 374 430 16,400 -2,032 Descending Salt Lake Center
09:09PM 40.7214 -112.7236 94° East 375 432 14,800 -1,682 Descending Salt Lake Center
09:10PM 40.7197 -112.5892 91° East 370 426 13,400 -1,390 Descending Salt Lake Center
09:11PM 40.7236 -112.5392 84° East 361 415 12,900 -1,037 Descending Salt Lake Center
09:12PM 40.7428 -112.4142 79° East 345 397 12,000 -524 Descending Salt Lake Center
09:12PM 40.7508 -112.3444 81° East 325 374 12,000  Level Salt Lake Center
09:13PM 40.7594 -112.3011 75° East 303 349 12,000 -290 Level Salt Lake Center
09:13PM 40.7653 -112.2433 82° East 277 319 11,700 -689 Descending Salt Lake Center
09:14PM 40.7658 -112.2000 89° East 271 312 11,300 -1,215 Descending Salt Lake Center
09:15PM 40.7331 -112.1092 115° Southeast 265 305 10,100 -1,079 Descending Salt Lake Center
09:17PM 40.6517 -112.0233 141° Southeast 198 228 7,900 -1,372 Descending Salt Lake Center
09:18PM 40.7056 -112.0022 17° North 200 230 5,800 -1,680 Descending Salt Lake Center
09:19PM 40.7322 -111.9897 20° North 192 221 5,100 -1,180 Descending Salt Lake Center
09:19PM 40.7536 -111.9944 351° North 167 192 4,600 -871 Descending Salt Lake Center
09:20PM 40.7789 -111.9956 358° North 170 196 4,200 -585 Descending Salt Lake Center